sensor_id;sensor_type;location;lat;lon;timestamp;P1;durP1;ratioP1;P2;durP2;ratioP2
38053;SDS011;23859;50.672;7.164;2023-11-19T00:00:33;1265.75;;;999.90;;
38053;SDS011;23859;50.672;7.164;2023-11-19T00:03:00;1226.00;;;999.90;;
38053;SDS011;23859;50.672;7.164;2023-11-19T00:05:26;1264.75;;;999.90;;
38053;SDS011;23859;50.672;7.164;2023-11-19T00:07:53;1238.15;;;999.90;;
38053;SDS011;23859;50.672;7.164;2023-11-19T00:10:20;1262.60;;;999.90;;
38053;SDS011;23859;50.672;7.164;2023-11-19T00:12:47;1248.30;;;999.90;;
38053;SDS011;23859;50.672;7.164;2023-11-19T00:15:14;1231.95;;;999.90;;
38053;SDS011;23859;50.672;7.164;2023-11-19T00:17:44;1264.22;;;999.90;;
38053;SDS011;23859;50.672;7.164;2023-11-19T00:20:11;1241.30;;;999.90;;
38053;SDS011;23859;50.672;7.164;2023-11-19T00:22:41;1249.13;;;999.90;;
38053;SDS011;23859;50.672;7.164;2023-11-19T00:25:08;1278.65;;;999.90;;
38053;SDS011;23859;50.672;7.164;2023-11-19T00:27:35;1238.10;;;999.90;;
38053;SDS011;23859;50.672;7.164;2023-11-19T00:30:02;1278.55;;;999.90;;
38053;SDS011;23859;50.672;7.164;2023-11-19T00:32:34;1224.65;;;999.90;;
38053;SDS011;23859;50.672;7.164;2023-11-19T00:35:01;1275.45;;;999.90;;
38053;SDS011;23859;50.672;7.164;2023-11-19T00:37:27;1235.15;;;999.90;;
38053;SDS011;23859;50.672;7.164;2023-11-19T00:39:54;1239.32;;;999.90;;
38053;SDS011;23859;50.672;7.164;2023-11-19T00:42:21;1248.82;;;999.90;;
38053;SDS011;23859;50.672;7.164;2023-11-19T00:44:49;1218.75;;;999.90;;
38053;SDS011;23859;50.672;7.164;2023-11-19T00:47:15;1265.43;;;999.90;;
38053;SDS011;23859;50.672;7.164;2023-11-19T00:49:41;1270.45;;;999.90;;
38053;SDS011;23859;50.672;7.164;2023-11-19T00:52:07;1272.20;;;999.90;;
38053;SDS011;23859;50.672;7.164;2023-11-19T00:54:33;1245.45;;;999.90;;
38053;SDS011;23859;50.672;7.164;2023-11-19T00:56:59;1230.57;;;999.90;;
38053;SDS011;23859;50.672;7.164;2023-11-19T00:59:26;1237.95;;;999.90;;
38053;SDS011;23859;50.672;7.164;2023-11-19T01:01:53;1254.32;;;999.90;;
38053;SDS011;23859;50.672;7.164;2023-11-19T01:04:21;1255.43;;;999.90;;
38053;SDS011;23859;50.672;7.164;2023-11-19T01:06:49;1270.55;;;999.90;;
38053;SDS011;23859;50.672;7.164;2023-11-19T01:09:15;1289.25;;;999.90;;
38053;SDS011;23859;50.672;7.164;2023-11-19T01:11:41;1261.05;;;999.90;;
38053;SDS011;23859;50.672;7.164;2023-11-19T01:14:07;1289.20;;;999.90;;
38053;SDS011;23859;50.672;7.164;2023-11-19T01:16:33;1252.07;;;999.90;;
38053;SDS011;23859;50.672;7.164;2023-11-19T01:18:59;1261.53;;;999.90;;
38053;SDS011;23859;50.672;7.164;2023-11-19T01:21:29;1224.65;;;999.90;;
38053;SDS011;23859;50.672;7.164;2023-11-19T01:23:56;1250.25;;;999.90;;
38053;SDS011;23859;50.672;7.164;2023-11-19T01:26:23;1290.10;;;999.90;;
38053;SDS011;23859;50.672;7.164;2023-11-19T01:28:49;1263.55;;;999.90;;
38053;SDS011;23859;50.672;7.164;2023-11-19T01:31:17;1258.78;;;999.90;;
38053;SDS011;23859;50.672;7.164;2023-11-19T01:33:44;1253.18;;;999.90;;
38053;SDS011;23859;50.672;7.164;2023-11-19T01:36:14;1254.45;;;999.90;;
38053;SDS011;23859;50.672;7.164;2023-11-19T01:38:40;1289.03;;;999.90;;
38053;SDS011;23859;50.672;7.164;2023-11-19T01:41:06;1261.57;;;999.90;;
38053;SDS011;23859;50.672;7.164;2023-11-19T01:46:02;1261.80;;;999.90;;
38053;SDS011;23859;50.672;7.164;2023-11-19T01:48:30;1272.38;;;999.90;;
38053;SDS011;23859;50.672;7.164;2023-11-19T01:51:01;1246.03;;;999.90;;
38053;SDS011;23859;50.672;7.164;2023-11-19T01:53:28;1231.32;;;999.90;;
38053;SDS011;23859;50.672;7.164;2023-11-19T01:55:56;1280.10;;;999.90;;
38053;SDS011;23859;50.672;7.164;2023-11-19T01:58:23;1289.95;;;999.90;;
38053;SDS011;23859;50.672;7.164;2023-11-19T02:00:49;1262.75;;;999.90;;
38053;SDS011;23859;50.672;7.164;2023-11-19T02:03:15;1270.65;;;999.90;;
38053;SDS011;23859;50.672;7.164;2023-11-19T02:05:42;1239.05;;;999.90;;
38053;SDS011;23859;50.672;7.164;2023-11-19T02:08:08;1259.13;;;999.90;;
38053;SDS011;23859;50.672;7.164;2023-11-19T02:10:34;1248.00;;;999.90;;
38053;SDS011;23859;50.672;7.164;2023-11-19T02:13:01;1291.15;;;999.90;;
38053;SDS011;23859;50.672;7.164;2023-11-19T02:15:27;1258.15;;;999.90;;
38053;SDS011;23859;50.672;7.164;2023-11-19T02:17:53;1257.45;;;999.90;;
38053;SDS011;23859;50.672;7.164;2023-11-19T02:20:20;1233.22;;;999.90;;
38053;SDS011;23859;50.672;7.164;2023-11-19T02:22:46;1260.32;;;999.90;;
38053;SDS011;23859;50.672;7.164;2023-11-19T02:25:31;1268.15;;;999.90;;
38053;SDS011;23859;50.672;7.164;2023-11-19T02:27:59;1241.13;;;999.90;;
38053;SDS011;23859;50.672;7.164;2023-11-19T02:30:27;1305.40;;;999.90;;
38053;SDS011;23859;50.672;7.164;2023-11-19T02:32:56;1286.65;;;999.90;;
38053;SDS011;23859;50.672;7.164;2023-11-19T02:35:24;1242.57;;;999.90;;
38053;SDS011;23859;50.672;7.164;2023-11-19T02:37:51;1248.25;;;999.90;;
38053;SDS011;23859;50.672;7.164;2023-11-19T02:40:17;1299.28;;;999.90;;
38053;SDS011;23859;50.672;7.164;2023-11-19T02:42:43;1244.32;;;999.90;;
38053;SDS011;23859;50.672;7.164;2023-11-19T02:45:09;1254.60;;;999.90;;
38053;SDS011;23859;50.672;7.164;2023-11-19T02:47:40;1275.68;;;999.90;;
38053;SDS011;23859;50.672;7.164;2023-11-19T02:50:07;1242.63;;;999.90;;
38053;SDS011;23859;50.672;7.164;2023-11-19T02:52:43;1242.72;;;999.90;;
38053;SDS011;23859;50.672;7.164;2023-11-19T02:55:11;1249.60;;;999.90;;
38053;SDS011;23859;50.672;7.164;2023-11-19T02:57:40;1217.55;;;999.90;;
38053;SDS011;23859;50.672;7.164;2023-11-19T03:00:16;1236.03;;;999.90;;
38053;SDS011;23859;50.672;7.164;2023-11-19T03:02:44;1224.70;;;999.90;;
38053;SDS011;23859;50.672;7.164;2023-11-19T03:05:18;1244.88;;;999.90;;
38053;SDS011;23859;50.672;7.164;2023-11-19T03:07:44;1239.10;;;999.90;;
38053;SDS011;23859;50.672;7.164;2023-11-19T03:10:11;1270.38;;;999.90;;
38053;SDS011;23859;50.672;7.164;2023-11-19T03:12:41;1227.50;;;999.90;;
38053;SDS011;23859;50.672;7.164;2023-11-19T03:15:08;1239.55;;;999.90;;
38053;SDS011;23859;50.672;7.164;2023-11-19T03:17:38;1253.28;;;999.90;;
38053;SDS011;23859;50.672;7.164;2023-11-19T03:20:05;1303.75;;;999.90;;
38053;SDS011;23859;50.672;7.164;2023-11-19T03:22:36;1271.82;;;999.90;;
38053;SDS011;23859;50.672;7.164;2023-11-19T03:25:03;1273.93;;;999.90;;
38053;SDS011;23859;50.672;7.164;2023-11-19T03:27:29;1254.80;;;999.90;;
38053;SDS011;23859;50.672;7.164;2023-11-19T03:29:55;1241.72;;;999.90;;
38053;SDS011;23859;50.672;7.164;2023-11-19T03:32:21;1273.47;;;999.90;;
38053;SDS011;23859;50.672;7.164;2023-11-19T03:34:47;1263.80;;;999.90;;
38053;SDS011;23859;50.672;7.164;2023-11-19T03:37:17;1260.78;;;999.90;;
38053;SDS011;23859;50.672;7.164;2023-11-19T03:39:43;1217.85;;;999.90;;
38053;SDS011;23859;50.672;7.164;2023-11-19T03:42:09;1227.18;;;999.90;;
38053;SDS011;23859;50.672;7.164;2023-11-19T03:44:38;1221.97;;;999.90;;
38053;SDS011;23859;50.672;7.164;2023-11-19T03:47:04;1267.15;;;999.90;;
38053;SDS011;23859;50.672;7.164;2023-11-19T03:49:30;1236.72;;;999.90;;
38053;SDS011;23859;50.672;7.164;2023-11-19T03:51:57;1238.20;;;999.90;;
38053;SDS011;23859;50.672;7.164;2023-11-19T03:54:23;1234.70;;;999.90;;
38053;SDS011;23859;50.672;7.164;2023-11-19T03:56:49;1219.78;;;999.90;;
38053;SDS011;23859;50.672;7.164;2023-11-19T03:59:15;1237.47;;;999.90;;
38053;SDS011;23859;50.672;7.164;2023-11-19T04:01:41;1227.38;;;999.90;;
38053;SDS011;23859;50.672;7.164;2023-11-19T04:04:07;1215.95;;;999.90;;
38053;SDS011;23859;50.672;7.164;2023-11-19T04:06:33;1240.78;;;999.90;;
38053;SDS011;23859;50.672;7.164;2023-11-19T04:08:59;1220.43;;;999.90;;
38053;SDS011;23859;50.672;7.164;2023-11-19T04:11:25;1242.88;;;999.90;;
38053;SDS011;23859;50.672;7.164;2023-11-19T04:13:51;1216.80;;;999.90;;
38053;SDS011;23859;50.672;7.164;2023-11-19T04:16:17;1251.85;;;999.90;;
38053;SDS011;23859;50.672;7.164;2023-11-19T04:18:44;1194.32;;;999.90;;
38053;SDS011;23859;50.672;7.164;2023-11-19T04:21:10;1221.15;;;999.90;;
38053;SDS011;23859;50.672;7.164;2023-11-19T04:23:36;1221.97;;;999.90;;
38053;SDS011;23859;50.672;7.164;2023-11-19T04:26:02;1238.90;;;999.90;;
38053;SDS011;23859;50.672;7.164;2023-11-19T04:28:30;1245.68;;;999.90;;
38053;SDS011;23859;50.672;7.164;2023-11-19T04:30:56;1211.32;;;999.90;;
38053;SDS011;23859;50.672;7.164;2023-11-19T04:33:22;1195.07;;;999.90;;
38053;SDS011;23859;50.672;7.164;2023-11-19T04:35:48;1221.50;;;999.90;;
38053;SDS011;23859;50.672;7.164;2023-11-19T04:38:14;1237.13;;;999.90;;
38053;SDS011;23859;50.672;7.164;2023-11-19T04:40:40;1217.78;;;999.90;;
38053;SDS011;23859;50.672;7.164;2023-11-19T04:43:06;1198.53;;;999.90;;
38053;SDS011;23859;50.672;7.164;2023-11-19T04:45:32;1189.22;;;999.90;;
38053;SDS011;23859;50.672;7.164;2023-11-19T04:47:59;1215.18;;;999.90;;
38053;SDS011;23859;50.672;7.164;2023-11-19T04:50:25;1184.13;;;999.90;;
38053;SDS011;23859;50.672;7.164;2023-11-19T04:52:52;1187.35;;;999.90;;
38053;SDS011;23859;50.672;7.164;2023-11-19T04:55:18;1207.25;;;999.90;;
38053;SDS011;23859;50.672;7.164;2023-11-19T04:57:44;1177.68;;;999.90;;
38053;SDS011;23859;50.672;7.164;2023-11-19T05:00:11;1192.93;;;999.90;;
38053;SDS011;23859;50.672;7.164;2023-11-19T05:02:37;1198.05;;;999.90;;
38053;SDS011;23859;50.672;7.164;2023-11-19T05:05:03;1200.50;;;999.90;;
38053;SDS011;23859;50.672;7.164;2023-11-19T05:07:30;1200.18;;;999.90;;
38053;SDS011;23859;50.672;7.164;2023-11-19T05:09:56;1185.65;;;999.90;;
38053;SDS011;23859;50.672;7.164;2023-11-19T05:12:22;1205.68;;;999.90;;
38053;SDS011;23859;50.672;7.164;2023-11-19T05:14:48;1173.85;;;999.90;;
38053;SDS011;23859;50.672;7.164;2023-11-19T05:17:18;1177.88;;;999.90;;
38053;SDS011;23859;50.672;7.164;2023-11-19T05:19:45;1193.55;;;999.90;;
38053;SDS011;23859;50.672;7.164;2023-11-19T05:22:11;1165.25;;;999.90;;
38053;SDS011;23859;50.672;7.164;2023-11-19T05:24:37;1182.63;;;999.90;;
38053;SDS011;23859;50.672;7.164;2023-11-19T05:27:04;1186.22;;;999.90;;
38053;SDS011;23859;50.672;7.164;2023-11-19T05:29:31;1173.65;;;999.90;;
38053;SDS011;23859;50.672;7.164;2023-11-19T05:31:57;1169.80;;;999.90;;
38053;SDS011;23859;50.672;7.164;2023-11-19T05:34:24;1163.65;;;999.90;;
38053;SDS011;23859;50.672;7.164;2023-11-19T05:36:50;1160.35;;;999.90;;
38053;SDS011;23859;50.672;7.164;2023-11-19T05:39:16;1191.60;;;999.90;;
38053;SDS011;23859;50.672;7.164;2023-11-19T05:41:43;1162.90;;;999.90;;
38053;SDS011;23859;50.672;7.164;2023-11-19T05:44:10;1167.20;;;999.90;;
38053;SDS011;23859;50.672;7.164;2023-11-19T05:46:36;1191.90;;;999.90;;
38053;SDS011;23859;50.672;7.164;2023-11-19T05:49:06;1145.88;;;999.90;;
38053;SDS011;23859;50.672;7.164;2023-11-19T05:51:35;1218.28;;;999.90;;
38053;SDS011;23859;50.672;7.164;2023-11-19T05:54:03;1184.70;;;999.90;;
38053;SDS011;23859;50.672;7.164;2023-11-19T05:56:32;1179.75;;;999.90;;
38053;SDS011;23859;50.672;7.164;2023-11-19T05:58:58;1168.85;;;999.90;;
38053;SDS011;23859;50.672;7.164;2023-11-19T06:01:32;1165.45;;;999.90;;
38053;SDS011;23859;50.672;7.164;2023-11-19T06:04:01;1142.70;;;999.90;;
38053;SDS011;23859;50.672;7.164;2023-11-19T06:06:28;1209.47;;;999.90;;
38053;SDS011;23859;50.672;7.164;2023-11-19T06:08:54;1225.38;;;999.90;;
38053;SDS011;23859;50.672;7.164;2023-11-19T06:11:20;1214.03;;;999.90;;
38053;SDS011;23859;50.672;7.164;2023-11-19T06:13:46;1169.03;;;999.90;;
38053;SDS011;23859;50.672;7.164;2023-11-19T06:16:13;1181.20;;;999.90;;
38053;SDS011;23859;50.672;7.164;2023-11-19T06:18:39;1168.75;;;999.90;;
38053;SDS011;23859;50.672;7.164;2023-11-19T06:21:06;1222.80;;;999.90;;
38053;SDS011;23859;50.672;7.164;2023-11-19T06:23:32;1227.00;;;999.90;;
38053;SDS011;23859;50.672;7.164;2023-11-19T06:25:58;1205.97;;;999.90;;
38053;SDS011;23859;50.672;7.164;2023-11-19T06:28:24;1226.75;;;999.90;;
38053;SDS011;23859;50.672;7.164;2023-11-19T06:30:51;1210.53;;;999.90;;
38053;SDS011;23859;50.672;7.164;2023-11-19T06:33:17;1214.55;;;999.90;;
38053;SDS011;23859;50.672;7.164;2023-11-19T06:35:43;1175.20;;;999.90;;
38053;SDS011;23859;50.672;7.164;2023-11-19T06:38:10;1217.97;;;999.90;;
38053;SDS011;23859;50.672;7.164;2023-11-19T06:40:36;1205.35;;;999.90;;
38053;SDS011;23859;50.672;7.164;2023-11-19T06:43:03;1185.57;;;999.90;;
38053;SDS011;23859;50.672;7.164;2023-11-19T06:45:29;1212.72;;;999.90;;
38053;SDS011;23859;50.672;7.164;2023-11-19T06:47:55;1229.38;;;999.90;;
38053;SDS011;23859;50.672;7.164;2023-11-19T06:50:21;1217.97;;;999.90;;
38053;SDS011;23859;50.672;7.164;2023-11-19T06:52:48;1205.20;;;999.90;;
38053;SDS011;23859;50.672;7.164;2023-11-19T06:55:15;1165.97;;;999.90;;
38053;SDS011;23859;50.672;7.164;2023-11-19T06:57:41;1212.15;;;999.90;;
38053;SDS011;23859;50.672;7.164;2023-11-19T07:00:07;1210.60;;;999.90;;
38053;SDS011;23859;50.672;7.164;2023-11-19T07:02:34;1216.22;;;999.90;;
38053;SDS011;23859;50.672;7.164;2023-11-19T07:05:00;1212.60;;;999.90;;
38053;SDS011;23859;50.672;7.164;2023-11-19T07:07:26;1234.45;;;999.90;;
38053;SDS011;23859;50.672;7.164;2023-11-19T07:09:52;1215.93;;;999.90;;
38053;SDS011;23859;50.672;7.164;2023-11-19T07:12:18;1221.32;;;999.90;;
38053;SDS011;23859;50.672;7.164;2023-11-19T07:14:44;1227.03;;;999.90;;
38053;SDS011;23859;50.672;7.164;2023-11-19T07:17:11;1208.30;;;999.90;;
38053;SDS011;23859;50.672;7.164;2023-11-19T07:19:37;1212.82;;;999.90;;
38053;SDS011;23859;50.672;7.164;2023-11-19T07:22:04;1175.00;;;999.90;;
38053;SDS011;23859;50.672;7.164;2023-11-19T07:24:31;1224.57;;;999.90;;
38053;SDS011;23859;50.672;7.164;2023-11-19T07:26:57;1208.30;;;999.90;;
38053;SDS011;23859;50.672;7.164;2023-11-19T07:29:23;1217.03;;;999.90;;
38053;SDS011;23859;50.672;7.164;2023-11-19T07:31:49;1218.95;;;999.90;;
38053;SDS011;23859;50.672;7.164;2023-11-19T07:34:15;1205.22;;;999.90;;
38053;SDS011;23859;50.672;7.164;2023-11-19T07:36:42;1210.90;;;999.90;;
38053;SDS011;23859;50.672;7.164;2023-11-19T07:39:08;1240.93;;;999.90;;
38053;SDS011;23859;50.672;7.164;2023-11-19T07:41:34;1219.38;;;999.90;;
38053;SDS011;23859;50.672;7.164;2023-11-19T07:44:00;1213.55;;;999.90;;
38053;SDS011;23859;50.672;7.164;2023-11-19T07:46:26;1203.63;;;999.90;;
38053;SDS011;23859;50.672;7.164;2023-11-19T07:48:52;1226.25;;;999.90;;
38053;SDS011;23859;50.672;7.164;2023-11-19T07:51:18;1242.60;;;999.90;;
38053;SDS011;23859;50.672;7.164;2023-11-19T07:53:44;1248.25;;;999.90;;
38053;SDS011;23859;50.672;7.164;2023-11-19T07:56:10;1100.78;;;999.90;;
38053;SDS011;23859;50.672;7.164;2023-11-19T07:58:37;1230.15;;;999.90;;
38053;SDS011;23859;50.672;7.164;2023-11-19T08:01:03;1262.38;;;999.90;;
38053;SDS011;23859;50.672;7.164;2023-11-19T08:03:29;1225.22;;;999.90;;
38053;SDS011;23859;50.672;7.164;2023-11-19T08:05:56;1228.47;;;999.90;;
38053;SDS011;23859;50.672;7.164;2023-11-19T08:08:22;1254.80;;;999.90;;
38053;SDS011;23859;50.672;7.164;2023-11-19T08:10:48;1226.43;;;999.90;;
38053;SDS011;23859;50.672;7.164;2023-11-19T08:13:16;1261.65;;;999.90;;
38053;SDS011;23859;50.672;7.164;2023-11-19T08:15:42;1265.68;;;999.90;;
38053;SDS011;23859;50.672;7.164;2023-11-19T08:18:08;1249.32;;;999.90;;
38053;SDS011;23859;50.672;7.164;2023-11-19T08:20:34;1281.40;;;999.90;;
38053;SDS011;23859;50.672;7.164;2023-11-19T08:23:02;1253.80;;;999.90;;
38053;SDS011;23859;50.672;7.164;2023-11-19T08:25:31;1298.80;;;999.90;;
38053;SDS011;23859;50.672;7.164;2023-11-19T08:27:58;1306.35;;;999.90;;
38053;SDS011;23859;50.672;7.164;2023-11-19T08:30:25;1264.57;;;999.90;;
38053;SDS011;23859;50.672;7.164;2023-11-19T08:32:51;1259.97;;;999.90;;
38053;SDS011;23859;50.672;7.164;2023-11-19T08:35:17;1213.45;;;999.90;;
38053;SDS011;23859;50.672;7.164;2023-11-19T08:37:44;1296.03;;;999.90;;
38053;SDS011;23859;50.672;7.164;2023-11-19T08:40:10;1271.20;;;999.90;;
38053;SDS011;23859;50.672;7.164;2023-11-19T08:42:39;1246.15;;;999.90;;
38053;SDS011;23859;50.672;7.164;2023-11-19T08:45:07;1281.75;;;999.90;;
38053;SDS011;23859;50.672;7.164;2023-11-19T08:47:35;1280.05;;;999.90;;
38053;SDS011;23859;50.672;7.164;2023-11-19T08:50:01;1292.57;;;999.90;;
38053;SDS011;23859;50.672;7.164;2023-11-19T08:52:29;1261.95;;;999.90;;
38053;SDS011;23859;50.672;7.164;2023-11-19T08:54:55;1240.40;;;999.90;;
38053;SDS011;23859;50.672;7.164;2023-11-19T08:57:22;1263.28;;;999.90;;
38053;SDS011;23859;50.672;7.164;2023-11-19T08:59:48;1239.63;;;999.90;;
38053;SDS011;23859;50.672;7.164;2023-11-19T09:02:14;1227.88;;;999.90;;
38053;SDS011;23859;50.672;7.164;2023-11-19T09:04:40;1188.93;;;999.90;;
38053;SDS011;23859;50.672;7.164;2023-11-19T09:07:06;1179.07;;;999.90;;
38053;SDS011;23859;50.672;7.164;2023-11-19T09:09:34;1191.22;;;999.90;;
38053;SDS011;23859;50.672;7.164;2023-11-19T09:12:01;1162.20;;;999.90;;
38053;SDS011;23859;50.672;7.164;2023-11-19T09:14:31;1178.20;;;999.90;;
38053;SDS011;23859;50.672;7.164;2023-11-19T09:16:57;1154.90;;;999.90;;
38053;SDS011;23859;50.672;7.164;2023-11-19T09:19:23;1190.78;;;999.90;;
38053;SDS011;23859;50.672;7.164;2023-11-19T09:21:51;1196.22;;;999.90;;
38053;SDS011;23859;50.672;7.164;2023-11-19T09:24:18;1236.00;;;999.90;;
38053;SDS011;23859;50.672;7.164;2023-11-19T09:26:44;1258.45;;;999.90;;
38053;SDS011;23859;50.672;7.164;2023-11-19T09:29:10;1235.40;;;999.90;;
38053;SDS011;23859;50.672;7.164;2023-11-19T09:31:39;1210.43;;;999.90;;
38053;SDS011;23859;50.672;7.164;2023-11-19T09:34:05;1212.65;;;999.90;;
38053;SDS011;23859;50.672;7.164;2023-11-19T09:36:31;1169.75;;;999.90;;
38053;SDS011;23859;50.672;7.164;2023-11-19T09:38:57;1126.05;;;999.90;;
38053;SDS011;23859;50.672;7.164;2023-11-19T09:41:25;1036.13;;;963.22;;
38053;SDS011;23859;50.672;7.164;2023-11-19T09:43:52;990.65;;;921.83;;
38053;SDS011;23859;50.672;7.164;2023-11-19T09:46:19;953.90;;;889.30;;
38053;SDS011;23859;50.672;7.164;2023-11-19T09:48:49;918.50;;;857.05;;
38053;SDS011;23859;50.672;7.164;2023-11-19T09:51:19;936.83;;;874.88;;
38053;SDS011;23859;50.672;7.164;2023-11-19T09:53:46;796.58;;;746.33;;
38053;SDS011;23859;50.672;7.164;2023-11-19T09:56:12;767.97;;;720.53;;
38053;SDS011;23859;50.672;7.164;2023-11-19T09:58:39;883.25;;;823.88;;
38053;SDS011;23859;50.672;7.164;2023-11-19T10:01:05;761.60;;;713.90;;
38053;SDS011;23859;50.672;7.164;2023-11-19T10:03:35;774.72;;;725.05;;
38053;SDS011;23859;50.672;7.164;2023-11-19T10:06:07;898.63;;;838.50;;
38053;SDS011;23859;50.672;7.164;2023-11-19T10:08:37;1167.78;;;999.90;;
38053;SDS011;23859;50.672;7.164;2023-11-19T10:11:07;1124.93;;;999.90;;
38053;SDS011;23859;50.672;7.164;2023-11-19T10:13:35;1137.38;;;999.90;;
38053;SDS011;23859;50.672;7.164;2023-11-19T10:16:10;1163.75;;;999.90;;
38053;SDS011;23859;50.672;7.164;2023-11-19T10:18:38;1194.70;;;999.90;;
38053;SDS011;23859;50.672;7.164;2023-11-19T10:21:12;1163.03;;;999.90;;
38053;SDS011;23859;50.672;7.164;2023-11-19T10:23:51;1126.68;;;999.90;;
38053;SDS011;23859;50.672;7.164;2023-11-19T10:26:27;1111.43;;;999.90;;
38053;SDS011;23859;50.672;7.164;2023-11-19T10:28:54;1122.40;;;999.90;;
38053;SDS011;23859;50.672;7.164;2023-11-19T10:31:21;1112.32;;;999.90;;
38053;SDS011;23859;50.672;7.164;2023-11-19T10:33:51;1061.35;;;979.92;;
38053;SDS011;23859;50.672;7.164;2023-11-19T10:36:18;1069.07;;;990.67;;
38053;SDS011;23859;50.672;7.164;2023-11-19T10:38:51;1066.03;;;984.90;;
38053;SDS011;23859;50.672;7.164;2023-11-19T10:41:31;1087.85;;;997.85;;
38053;SDS011;23859;50.672;7.164;2023-11-19T10:43:57;1109.07;;;999.90;;
38053;SDS011;23859;50.672;7.164;2023-11-19T10:46:35;1073.88;;;992.70;;
38053;SDS011;23859;50.672;7.164;2023-11-19T10:49:05;1121.68;;;999.90;;
38053;SDS011;23859;50.672;7.164;2023-11-19T10:51:33;1107.47;;;999.90;;
38053;SDS011;23859;50.672;7.164;2023-11-19T10:54:03;1159.72;;;999.90;;
38053;SDS011;23859;50.672;7.164;2023-11-19T10:56:31;1194.22;;;999.90;;
38053;SDS011;23859;50.672;7.164;2023-11-19T10:58:58;1265.63;;;999.90;;
38053;SDS011;23859;50.672;7.164;2023-11-19T11:01:26;1241.72;;;999.90;;
38053;SDS011;23859;50.672;7.164;2023-11-19T11:03:59;1251.00;;;999.90;;
38053;SDS011;23859;50.672;7.164;2023-11-19T11:06:27;1272.10;;;999.90;;
38053;SDS011;23859;50.672;7.164;2023-11-19T11:08:54;1245.40;;;999.90;;
38053;SDS011;23859;50.672;7.164;2023-11-19T11:11:21;1255.95;;;999.90;;
38053;SDS011;23859;50.672;7.164;2023-11-19T11:13:48;1240.03;;;999.90;;
38053;SDS011;23859;50.672;7.164;2023-11-19T11:16:18;1177.53;;;999.90;;
38053;SDS011;23859;50.672;7.164;2023-11-19T11:18:45;1213.32;;;999.90;;
38053;SDS011;23859;50.672;7.164;2023-11-19T11:21:17;1194.10;;;999.90;;
38053;SDS011;23859;50.672;7.164;2023-11-19T11:29:35;1041.05;;;968.05;;
38053;SDS011;23859;50.672;7.164;2023-11-19T11:35:30;1045.68;;;975.63;;
38053;SDS011;23859;50.672;7.164;2023-11-19T11:38:08;1033.15;;;964.03;;
38053;SDS011;23859;50.672;7.164;2023-11-19T11:40:34;1024.53;;;955.90;;
38053;SDS011;23859;50.672;7.164;2023-11-19T11:43:04;981.53;;;915.78;;
38053;SDS011;23859;50.672;7.164;2023-11-19T11:45:50;950.35;;;886.95;;
38053;SDS011;23859;50.672;7.164;2023-11-19T11:48:16;981.90;;;915.92;;
38053;SDS011;23859;50.672;7.164;2023-11-19T11:50:56;961.28;;;897.92;;
38053;SDS011;23859;50.672;7.164;2023-11-19T11:53:24;956.30;;;891.47;;
38053;SDS011;23859;50.672;7.164;2023-11-19T11:58:18;980.08;;;913.10;;
38053;SDS011;23859;50.672;7.164;2023-11-19T12:00:48;953.95;;;889.95;;
38053;SDS011;23859;50.672;7.164;2023-11-19T12:03:18;915.10;;;853.42;;
38053;SDS011;23859;50.672;7.164;2023-11-19T12:05:47;920.47;;;858.60;;
38053;SDS011;23859;50.672;7.164;2023-11-19T12:08:14;961.30;;;895.35;;
38053;SDS011;23859;50.672;7.164;2023-11-19T12:13:17;896.45;;;837.70;;
38053;SDS011;23859;50.672;7.164;2023-11-19T12:18:26;873.50;;;814.95;;
38053;SDS011;23859;50.672;7.164;2023-11-19T12:20:53;865.40;;;807.65;;
38053;SDS011;23859;50.672;7.164;2023-11-19T12:23:20;886.63;;;826.67;;
38053;SDS011;23859;50.672;7.164;2023-11-19T12:25:47;917.33;;;857.08;;
38053;SDS011;23859;50.672;7.164;2023-11-19T12:28:13;946.65;;;883.90;;
38053;SDS011;23859;50.672;7.164;2023-11-19T12:30:42;944.70;;;881.28;;
38053;SDS011;23859;50.672;7.164;2023-11-19T12:33:09;830.05;;;775.33;;
38053;SDS011;23859;50.672;7.164;2023-11-19T12:35:42;950.83;;;883.58;;
38053;SDS011;23859;50.672;7.164;2023-11-19T12:38:20;954.58;;;887.47;;
38053;SDS011;23859;50.672;7.164;2023-11-19T12:40:47;959.10;;;889.78;;
38053;SDS011;23859;50.672;7.164;2023-11-19T12:43:37;949.25;;;882.90;;
38053;SDS011;23859;50.672;7.164;2023-11-19T12:46:22;971.40;;;903.30;;
38053;SDS011;23859;50.672;7.164;2023-11-19T12:48:49;989.72;;;921.10;;
38053;SDS011;23859;50.672;7.164;2023-11-19T12:51:16;950.25;;;883.03;;
38053;SDS011;23859;50.672;7.164;2023-11-19T12:53:49;984.45;;;915.38;;
38053;SDS011;23859;50.672;7.164;2023-11-19T12:56:23;995.03;;;924.58;;
38053;SDS011;23859;50.672;7.164;2023-11-19T12:58:50;960.40;;;893.53;;
38053;SDS011;23859;50.672;7.164;2023-11-19T13:01:17;903.95;;;842.53;;
38053;SDS011;23859;50.672;7.164;2023-11-19T13:03:44;916.92;;;853.30;;
38053;SDS011;23859;50.672;7.164;2023-11-19T13:06:12;880.53;;;819.25;;
38053;SDS011;23859;50.672;7.164;2023-11-19T13:08:44;911.90;;;849.22;;
38053;SDS011;23859;50.672;7.164;2023-11-19T13:11:13;858.47;;;800.53;;
38053;SDS011;23859;50.672;7.164;2023-11-19T13:13:55;761.92;;;712.17;;
38053;SDS011;23859;50.672;7.164;2023-11-19T13:16:23;719.77;;;675.43;;
38053;SDS011;23859;50.672;7.164;2023-11-19T13:18:49;720.55;;;676.45;;
38053;SDS011;23859;50.672;7.164;2023-11-19T13:21:16;674.67;;;633.92;;
38053;SDS011;23859;50.672;7.164;2023-11-19T13:23:43;682.35;;;641.80;;
38053;SDS011;23859;50.672;7.164;2023-11-19T13:26:09;671.90;;;632.10;;
38053;SDS011;23859;50.672;7.164;2023-11-19T13:28:36;659.08;;;620.10;;
38053;SDS011;23859;50.672;7.164;2023-11-19T13:31:03;710.13;;;666.70;;
38053;SDS011;23859;50.672;7.164;2023-11-19T13:33:29;706.55;;;662.95;;
38053;SDS011;23859;50.672;7.164;2023-11-19T13:35:55;720.22;;;676.05;;
38053;SDS011;23859;50.672;7.164;2023-11-19T13:38:22;747.53;;;699.60;;
38053;SDS011;23859;50.672;7.164;2023-11-19T13:40:49;704.15;;;660.17;;
38053;SDS011;23859;50.672;7.164;2023-11-19T13:43:16;715.47;;;672.10;;
38053;SDS011;23859;50.672;7.164;2023-11-19T13:45:42;684.65;;;643.28;;
38053;SDS011;23859;50.672;7.164;2023-11-19T13:48:08;737.92;;;691.83;;
38053;SDS011;23859;50.672;7.164;2023-11-19T13:50:34;713.08;;;669.05;;
38053;SDS011;23859;50.672;7.164;2023-11-19T13:53:00;743.17;;;696.75;;
38053;SDS011;23859;50.672;7.164;2023-11-19T13:55:26;604.33;;;569.33;;
38053;SDS011;23859;50.672;7.164;2023-11-19T13:57:52;850.35;;;792.90;;
38053;SDS011;23859;50.672;7.164;2023-11-19T14:00:18;839.67;;;782.72;;
38053;SDS011;23859;50.672;7.164;2023-11-19T14:02:46;921.65;;;857.40;;
38053;SDS011;23859;50.672;7.164;2023-11-19T14:05:13;939.22;;;874.70;;
38053;SDS011;23859;50.672;7.164;2023-11-19T14:07:43;908.58;;;845.97;;